Time;durP1;ratioP1;P1;durP2;ratioP2;P2;SDS_P1;SDS_P2;PMS_P1;PMS_P2;Temp;Humidity;BMP_temperature;BMP_pressure;BME280_temperature;BME280_humidity;BME280_pressure;Samples;Min_cycle;Max_cycle;Signal;HPM_P1;HPM_P2
2021/04/26 00:00:06;;;;;;;1.77;1.25;;;;;;;;;;4997458;28;20035;-64
2021/04/26 00:02:38;;;;;;;2.47;1.40;;;;;;;;;;4993906;28;20050;-64
2021/04/26 00:05:05;;;;;;;2.10;1.25;;;;;;;;;;4995776;28;20048;-64
2021/04/26 00:07:31;;;;;;;2.78;1.50;;;;;;;;;;4995720;28;20073;-64
2021/04/26 00:09:56;;;;;;;4.00;1.40;;;;;;;;;;5000999;28;20069;-64
2021/04/26 00:12:22;;;;;;;2.35;1.52;;;;;;;;;;4997795;28;20039;-64
2021/04/26 00:14:47;;;;;;;1.83;1.30;;;;;;;;;;4995145;28;20525;-64
2021/04/26 00:17:13;;;;;;;2.67;1.40;;;;;;;;;;4997060;28;20319;-65
2021/04/26 00:19:38;;;;;;;2.92;1.42;;;;;;;;;;4996346;28;20038;-65
2021/04/26 00:22:04;;;;;;;2.10;1.38;;;;;;;;;;4996073;28;20045;-64
2021/04/26 00:24:29;;;;;;;2.60;1.60;;;;;;;;;;4994456;28;20459;-64
2021/04/26 00:26:54;;;;;;;1.55;1.33;;;;;;;;;;4997015;28;20373;-65
2021/04/26 00:29:20;;;;;;;1.95;1.30;;;;;;;;;;4995228;28;20038;-64
2021/04/26 00:31:45;;;;;;;1.70;1.10;;;;;;;;;;4998364;28;20046;-65
2021/04/26 00:34:11;;;;;;;1.38;1.23;;;;;;;;;;4996842;28;20030;-65
2021/04/26 00:36:36;;;;;;;1.92;1.17;;;;;;;;;;4995417;28;20514;-64
2021/04/26 00:39:02;;;;;;;2.58;1.50;;;;;;;;;;4995968;28;20476;-64
2021/04/26 00:41:27;;;;;;;2.03;1.40;;;;;;;;;;4979342;28;20027;-65
2021/04/26 00:43:53;;;;;;;3.22;1.60;;;;;;;;;;4996595;28;20043;-64
2021/04/26 00:46:18;;;;;;;2.63;1.10;;;;;;;;;;4995172;28;20031;-64
2021/04/26 00:48:44;;;;;;;2.17;1.50;;;;;;;;;;4996437;28;20040;-65
2021/04/26 00:51:09;;;;;;;2.63;1.50;;;;;;;;;;4995795;28;20518;-64
2021/04/26 00:53:35;;;;;;;1.77;1.27;;;;;;;;;;4996947;28;20043;-65
2021/04/26 00:56:01;;;;;;;2.15;1.48;;;;;;;;;;5001464;28;20037;-64
2021/04/26 00:58:27;;;;;;;2.08;1.30;;;;;;;;;;4978914;28;20085;-65
2021/04/26 01:00:53;;;;;;;2.03;1.45;;;;;;;;;;4996719;28;20057;-65
2021/04/26 01:03:18;;;;;;;3.55;1.48;;;;;;;;;;4997183;28;20038;-64
2021/04/26 01:05:44;;;;;;;1.83;1.30;;;;;;;;;;4996685;28;20030;-65
2021/04/26 01:08:09;;;;;;;1.40;1.20;;;;;;;;;;4995913;28;20030;-65
2021/04/26 01:11:13;;;;;;;2.08;1.35;;;;;;;;;;4984399;28;20545;-65
2021/04/26 01:14:03;;;;;;;2.00;1.40;;;;;;;;;;5001815;28;20034;-64
2021/04/26 01:16:44;;;;;;;1.95;1.30;;;;;;;;;;4977812;28;20125;-65
2021/04/26 01:19:41;;;;;;;1.83;1.30;;;;;;;;;;4987996;28;20045;-65
2021/04/26 01:22:33;;;;;;;1.70;1.10;;;;;;;;;;4996418;28;20118;-65
2021/04/26 01:25:12;;;;;;;2.47;1.20;;;;;;;;;;4992083;28;20503;-65
2021/04/26 01:28:05;;;;;;;1.23;1.08;;;;;;;;;;4996095;28;20030;-65
2021/04/26 01:30:50;;;;;;;;;;;;;;;;;;4986809;28;20487;-65
2021/04/26 01:33:20;;;;;;;4.18;1.40;;;;;;;;;;4996151;28;19922;-64
2021/04/26 01:36:00;;;;;;;2.25;1.40;;;;;;;;;;4988915;28;20502;-65
2021/04/26 01:38:28;;;;;;;2.75;1.27;;;;;;;;;;4979088;28;20034;-64
2021/04/26 01:40:57;;;;;;;2.35;1.27;;;;;;;;;;4986135;28;20034;-65
2021/04/26 01:43:24;;;;;;;2.22;1.10;;;;;;;;;;5003851;28;20038;-65
2021/04/26 01:45:52;;;;;;;1.50;1.08;;;;;;;;;;4997507;28;20027;-65
2021/04/26 01:48:17;;;;;;;2.17;1.23;;;;;;;;;;4998355;28;20089;-64
2021/04/26 01:50:47;;;;;;;1.45;1.17;;;;;;;;;;4996278;28;20049;-65
2021/04/26 01:53:15;;;;;;;2.38;1.40;;;;;;;;;;4997579;28;20049;-64
2021/04/26 01:55:41;;;;;;;2.03;1.40;;;;;;;;;;4997851;28;20031;-65
2021/04/26 01:58:06;;;;;;;2.10;1.25;;;;;;;;;;4998237;28;20039;-65
2021/04/26 02:00:36;;;;;;;1.35;1.08;;;;;;;;;;4965706;28;20125;-64
2021/04/26 02:03:08;;;;;;;1.60;1.10;;;;;;;;;;4982331;28;20085;-65
2021/04/26 02:05:44;;;;;;;1.50;1.13;;;;;;;;;;4983100;28;20035;-66
2021/04/26 02:08:12;;;;;;;2.15;1.30;;;;;;;;;;4965632;28;20035;-65
2021/04/26 02:10:40;;;;;;;1.65;1.08;;;;;;;;;;5004260;28;20042;-65
2021/04/26 02:13:07;;;;;;;1.63;1.30;;;;;;;;;;5015382;28;20106;-65
2021/04/26 02:15:33;;;;;;;1.33;1.08;;;;;;;;;;4980660;28;20520;-65
2021/04/26 02:18:00;;;;;;;2.17;1.30;;;;;;;;;;4982169;28;20066;-65
2021/04/26 02:20:26;;;;;;;1.58;1.27;;;;;;;;;;4984231;28;20038;-64
2021/04/26 02:22:51;;;;;;;1.95;1.40;;;;;;;;;;5003486;28;20097;-65
2021/04/26 02:25:17;;;;;;;1.58;1.13;;;;;;;;;;4997083;28;20042;-65
2021/04/26 02:27:43;;;;;;;2.45;1.30;;;;;;;;;;4986218;28;20034;-65
2021/04/26 02:30:09;;;;;;;2.08;1.17;;;;;;;;;;4998318;28;20062;-64
2021/04/26 02:32:48;;;;;;;1.20;1.10;;;;;;;;;;4997100;28;20037;-65
2021/04/26 02:36:10;;;;;;;2.50;1.20;;;;;;;;;;4967934;28;20046;-65
2021/04/26 02:38:37;;;;;;;2.05;1.30;;;;;;;;;;5001117;28;20046;-65
2021/04/26 02:41:13;;;;;;;2.28;1.35;;;;;;;;;;4997454;28;20030;-65
2021/04/26 02:43:45;;;;;;;1.55;1.30;;;;;;;;;;4996574;28;20038;-65
2021/04/26 02:46:12;;;;;;;1.80;1.30;;;;;;;;;;4991712;28;20037;-65
2021/04/26 02:48:38;;;;;;;2.15;1.38;;;;;;;;;;4979559;28;20388;-64
2021/04/26 02:51:04;;;;;;;2.13;1.17;;;;;;;;;;4995201;28;20114;-65
2021/04/26 02:53:31;;;;;;;1.85;1.17;;;;;;;;;;4994278;28;20085;-65
2021/04/26 02:56:03;;;;;;;1.58;1.17;;;;;;;;;;4997191;28;20501;-65
2021/04/26 02:58:32;;;;;;;1.73;1.08;;;;;;;;;;5003152;28;20035;-65
2021/04/26 03:00:59;;;;;;;1.50;1.27;;;;;;;;;;4982123;28;20030;-65
2021/04/26 03:03:37;;;;;;;1.67;1.50;;;;;;;;;;4973574;28;20109;-65
2021/04/26 03:06:05;;;;;;;1.30;1.20;;;;;;;;;;4987554;28;20037;-65
2021/04/26 03:08:35;;;;;;;1.55;1.15;;;;;;;;;;4990266;28;20081;-65
2021/04/26 03:11:05;;;;;;;2.58;1.30;;;;;;;;;;4996759;28;20042;-65
2021/04/26 03:13:32;;;;;;;1.95;1.20;;;;;;;;;;4995812;28;20193;-65
2021/04/26 03:15:57;;;;;;;2.20;1.20;;;;;;;;;;5002550;28;20039;-65
2021/04/26 03:18:25;;;;;;;2.17;1.30;;;;;;;;;;5002046;28;20034;-64
2021/04/26 03:20:51;;;;;;;2.20;1.33;;;;;;;;;;4986613;28;20039;-65
2021/04/26 03:23:23;;;;;;;2.72;1.23;;;;;;;;;;4978632;28;20041;-64
2021/04/26 03:25:49;;;;;;;3.38;1.52;;;;;;;;;;4985316;28;20031;-65
2021/04/26 03:28:16;;;;;;;2.25;1.25;;;;;;;;;;4995986;28;20031;-65
2021/04/26 03:30:44;;;;;;;2.03;1.30;;;;;;;;;;4978764;28;20145;-65
2021/04/26 03:33:32;;;;;;;2.08;1.30;;;;;;;;;;4981059;28;20045;-64
2021/04/26 03:35:58;;;;;;;2.47;1.50;;;;;;;;;;4995658;28;20039;-65
2021/04/26 03:38:24;;;;;;;2.15;1.20;;;;;;;;;;4994872;28;20034;-65
2021/04/26 03:40:50;;;;;;;2.72;1.50;;;;;;;;;;4961381;28;20934;-64
2021/04/26 03:43:17;;;;;;;2.22;1.40;;;;;;;;;;4978481;28;20039;-65
2021/04/26 03:45:57;;;;;;;1.63;1.30;;;;;;;;;;5010033;28;20046;-65
2021/04/26 03:48:58;;;;;;;2.50;1.42;;;;;;;;;;4953406;28;20066;-66
2021/04/26 03:51:46;;;;;;;2.55;1.30;;;;;;;;;;4982364;28;20060;-65
2021/04/26 03:54:11;;;;;;;1.23;1.05;;;;;;;;;;4995287;28;20403;-65
2021/04/26 03:56:39;;;;;;;2.17;1.50;;;;;;;;;;4993229;28;20031;-64
2021/04/26 03:59:05;;;;;;;2.65;1.30;;;;;;;;;;4991146;28;20057;-65
2021/04/26 04:01:33;;;;;;;2.33;1.27;;;;;;;;;;4995540;28;20041;-64
2021/04/26 04:04:00;;;;;;;2.03;1.20;;;;;;;;;;4996320;28;20034;-65
2021/04/26 04:06:32;;;;;;;1.67;1.23;;;;;;;;;;4994890;28;20034;-64
2021/04/26 04:09:17;;;;;;;2.72;1.20;;;;;;;;;;4995898;28;20054;-64
2021/04/26 04:11:42;;;;;;;2.83;1.60;;;;;;;;;;4997661;28;20054;-65
2021/04/26 04:14:34;;;;;;;2.17;1.42;;;;;;;;;;4971914;28;20616;-65
2021/04/26 04:17:03;;;;;;;2.55;1.42;;;;;;;;;;5009944;28;20554;-64
2021/04/26 04:19:29;;;;;;;4.45;3.25;;;;;;;;;;4993354;28;20034;-65
2021/04/26 04:21:56;;;;;;;3.80;2.70;;;;;;;;;;5010513;28;20046;-65
2021/04/26 04:24:22;;;;;;;1.98;1.63;;;;;;;;;;5001125;28;20201;-65
2021/04/26 04:26:50;;;;;;;2.17;1.70;;;;;;;;;;4996444;28;20502;-64
2021/04/26 04:29:16;;;;;;;3.53;1.80;;;;;;;;;;4996140;28;20049;-65
2021/04/26 04:31:48;;;;;;;3.88;1.60;;;;;;;;;;5007868;28;20089;-65
2021/04/26 04:34:43;;;;;;;2.08;1.20;;;;;;;;;;4955870;28;20047;-66
2021/04/26 04:37:27;;;;;;;1.80;1.30;;;;;;;;;;5004658;28;20055;-65
2021/04/26 04:40:11;;;;;;;2.22;1.23;;;;;;;;;;4993398;28;20466;-65
2021/04/26 04:43:15;;;;;;;2.47;1.50;;;;;;;;;;4980462;28;20047;-65
2021/04/26 04:45:53;;;;;;;1.75;1.20;;;;;;;;;;5000903;28;20039;-65
2021/04/26 04:48:37;;;;;;;1.95;1.27;;;;;;;;;;5010314;28;20232;-65
2021/04/26 04:51:04;;;;;;;3.03;1.42;;;;;;;;;;4991892;28;20046;-65
2021/04/26 04:53:31;;;;;;;2.03;1.38;;;;;;;;;;4999683;28;20138;-65
2021/04/26 04:55:56;;;;;;;1.75;1.27;;;;;;;;;;4999604;28;20045;-64
2021/04/26 04:58:31;;;;;;;1.98;1.20;;;;;;;;;;5008558;28;20175;-64
2021/04/26 05:00:57;;;;;;;1.80;1.30;;;;;;;;;;4992931;28;20476;-65
2021/04/26 05:03:41;;;;;;;2.20;1.27;;;;;;;;;;4996186;28;20042;-65
2021/04/26 05:06:25;;;;;;;2.42;1.38;;;;;;;;;;4995420;28;20046;-65
2021/04/26 05:09:09;;;;;;;2.42;1.42;;;;;;;;;;4989596;28;20357;-65
2021/04/26 05:11:55;;;;;;;1.90;1.30;;;;;;;;;;4983274;28;20049;-65
2021/04/26 05:14:42;;;;;;;2.45;1.75;;;;;;;;;;4993456;28;20618;-64
2021/04/26 05:17:08;;;;;;;1.90;1.27;;;;;;;;;;4994284;28;20045;-65
2021/04/26 05:19:33;;;;;;;2.45;1.50;;;;;;;;;;4993612;28;20093;-64
2021/04/26 05:22:00;;;;;;;1.65;1.30;;;;;;;;;;4994267;28;20042;-65
2021/04/26 05:24:25;;;;;;;1.80;1.30;;;;;;;;;;5011133;28;20041;-65
2021/04/26 05:26:51;;;;;;;1.63;1.40;;;;;;;;;;4976350;28;20415;-64
2021/04/26 05:29:18;;;;;;;2.88;1.55;;;;;;;;;;4992431;28;20885;-64
2021/04/26 05:31:43;;;;;;;2.17;1.50;;;;;;;;;;5002328;28;20039;-65
2021/04/26 05:34:09;;;;;;;1.63;1.52;;;;;;;;;;4994281;28;20034;-65
2021/04/26 05:36:40;;;;;;;2.25;1.50;;;;;;;;;;4992039;28;20521;-64
2021/04/26 05:39:06;;;;;;;1.73;1.40;;;;;;;;;;4993062;28;20042;-64
2021/04/26 05:41:33;;;;;;;2.13;1.45;;;;;;;;;;4992788;28;20110;-64
2021/04/26 05:43:59;;;;;;;2.40;1.55;;;;;;;;;;4992258;28;20035;-64
2021/04/26 05:46:31;;;;;;;3.13;1.45;;;;;;;;;;5008790;28;20034;-64
2021/04/26 05:48:57;;;;;;;1.73;1.40;;;;;;;;;;4993725;28;20035;-64
2021/04/26 05:51:23;;;;;;;3.20;1.42;;;;;;;;;;4992960;28;20038;-65
2021/04/26 05:53:48;;;;;;;3.38;1.60;;;;;;;;;;4994433;28;20049;-64
2021/04/26 05:56:14;;;;;;;2.15;1.55;;;;;;;;;;4995936;28;20050;-64
2021/04/26 05:58:39;;;;;;;2.35;1.38;;;;;;;;;;4992686;28;20034;-65
2021/04/26 06:01:05;;;;;;;2.05;1.40;;;;;;;;;;4994033;28;20066;-65
2021/04/26 06:03:30;;;;;;;3.08;1.48;;;;;;;;;;4994321;28;20870;-64
2021/04/26 06:05:57;;;;;;;1.95;1.20;;;;;;;;;;4994255;28;20038;-64
2021/04/26 06:08:22;;;;;;;2.70;1.45;;;;;;;;;;4994560;28;20106;-65
2021/04/26 06:10:48;;;;;;;2.90;1.50;;;;;;;;;;4994325;28;20469;-64
2021/04/26 06:13:13;;;;;;;1.92;1.33;;;;;;;;;;4994098;28;20043;-65
2021/04/26 06:15:39;;;;;;;2.17;1.20;;;;;;;;;;4993512;28;20627;-65
2021/04/26 06:18:08;;;;;;;1.60;1.25;;;;;;;;;;4992078;28;20058;-64
2021/04/26 06:20:34;;;;;;;1.45;1.23;;;;;;;;;;4992521;28;20030;-64
2021/04/26 06:22:59;;;;;;;1.42;0.95;;;;;;;;;;4992070;28;20029;-64
2021/04/26 06:25:25;;;;;;;2.63;1.30;;;;;;;;;;4992864;28;20045;-65
2021/04/26 06:27:50;;;;;;;1.80;1.30;;;;;;;;;;4995047;28;20066;-64
2021/04/26 06:30:16;;;;;;;1.70;1.02;;;;;;;;;;4998797;28;20383;-64
2021/04/26 06:32:42;;;;;;;1.33;1.00;;;;;;;;;;4995087;28;20581;-64
2021/04/26 06:35:07;;;;;;;2.53;1.13;;;;;;;;;;4996199;28;20026;-64
2021/04/26 06:37:33;;;;;;;1.42;1.00;;;;;;;;;;4998757;28;20034;-64
2021/04/26 06:39:59;;;;;;;1.15;0.88;;;;;;;;;;4996490;28;20030;-64
2021/04/26 06:42:25;;;;;;;2.63;1.02;;;;;;;;;;4996761;28;20057;-64
2021/04/26 06:44:50;;;;;;;1.42;0.90;;;;;;;;;;5011405;28;20070;-64
2021/04/26 06:47:16;;;;;;;1.10;1.00;;;;;;;;;;4995644;28;20030;-64
2021/04/26 06:49:41;;;;;;;2.25;0.95;;;;;;;;;;4996082;28;20057;-65
2021/04/26 06:52:06;;;;;;;1.48;0.90;;;;;;;;;;4996296;28;20078;-64
2021/04/26 06:54:32;;;;;;;1.10;0.85;;;;;;;;;;4999285;28;20045;-63
2021/04/26 06:56:57;;;;;;;1.83;1.15;;;;;;;;;;4997274;28;20398;-64
2021/04/26 06:59:23;;;;;;;2.35;1.13;;;;;;;;;;4997450;28;20043;-65
2021/04/26 07:01:48;;;;;;;1.08;0.80;;;;;;;;;;4999855;28;20647;-64
2021/04/26 07:04:14;;;;;;;1.23;0.80;;;;;;;;;;5002600;28;20149;-64
2021/04/26 07:06:39;;;;;;;1.73;0.88;;;;;;;;;;5003184;28;20045;-64
2021/04/26 07:09:05;;;;;;;1.90;0.80;;;;;;;;;;4994970;28;20593;-64
2021/04/26 07:11:30;;;;;;;1.23;0.70;;;;;;;;;;4998005;28;20053;-63
2021/04/26 07:13:56;;;;;;;1.33;0.80;;;;;;;;;;4997852;28;20061;-64
2021/04/26 07:16:21;;;;;;;1.42;0.80;;;;;;;;;;4995942;28;20046;-64
2021/04/26 07:18:47;;;;;;;1.73;0.90;;;;;;;;;;4996259;28;20034;-64
2021/04/26 07:21:13;;;;;;;1.45;0.80;;;;;;;;;;4997352;28;20034;-63
2021/04/26 07:23:39;;;;;;;2.17;0.93;;;;;;;;;;4998094;28;20039;-63
2021/04/26 07:26:05;;;;;;;1.20;0.80;;;;;;;;;;4997170;28;20034;-63
2021/04/26 07:28:31;;;;;;;1.65;1.00;;;;;;;;;;4996514;28;20419;-63
2021/04/26 07:30:56;;;;;;;1.25;0.90;;;;;;;;;;4998304;28;20046;-63
2021/04/26 07:33:22;;;;;;;1.90;0.90;;;;;;;;;;5002374;28;20027;-63
2021/04/26 07:35:47;;;;;;;1.70;0.90;;;;;;;;;;5003234;28;20475;-64
2021/04/26 07:38:14;;;;;;;1.95;1.00;;;;;;;;;;5010404;28;20373;-63
2021/04/26 07:40:39;;;;;;;1.27;0.90;;;;;;;;;;4997971;28;20486;-63
2021/04/26 07:43:05;;;;;;;1.20;0.80;;;;;;;;;;4998917;28;20043;-63
2021/04/26 07:45:31;;;;;;;0.98;0.73;;;;;;;;;;5002829;28;20132;-63
2021/04/26 07:47:57;;;;;;;1.27;0.90;;;;;;;;;;5002282;28;20417;-64
2021/04/26 07:50:23;;;;;;;1.63;0.90;;;;;;;;;;4997714;28;20644;-64
2021/04/26 07:52:48;;;;;;;2.30;1.00;;;;;;;;;;4996446;28;20066;-63
2021/04/26 07:55:14;;;;;;;1.15;0.88;;;;;;;;;;4996082;28;20042;-63
2021/04/26 07:57:40;;;;;;;0.95;0.70;;;;;;;;;;4998610;28;20673;-63
2021/04/26 08:00:06;;;;;;;0.90;0.70;;;;;;;;;;5001198;28;21024;-63
2021/04/26 08:02:33;;;;;;;1.15;0.70;;;;;;;;;;4996337;28;20450;-64
2021/04/26 08:04:58;;;;;;;1.05;0.50;;;;;;;;;;5002051;28;20109;-63
2021/04/26 08:07:24;;;;;;;0.60;0.60;;;;;;;;;;4997773;28;20662;-64
2021/04/26 08:09:49;;;;;;;0.63;0.57;;;;;;;;;;4994589;28;20097;-63
2021/04/26 08:12:15;;;;;;;0.50;0.50;;;;;;;;;;4997073;28;20039;-63
2021/04/26 08:14:41;;;;;;;1.80;0.60;;;;;;;;;;4994874;28;20038;-64
2021/04/26 08:17:06;;;;;;;0.90;0.70;;;;;;;;;;4996716;28;20089;-63
2021/04/26 08:19:32;;;;;;;0.80;0.60;;;;;;;;;;4996322;28;20031;-63
2021/04/26 08:21:57;;;;;;;0.90;0.60;;;;;;;;;;5001118;28;20501;-63
2021/04/26 08:24:24;;;;;;;2.00;0.77;;;;;;;;;;4994160;28;20035;-63
2021/04/26 08:26:50;;;;;;;0.65;0.52;;;;;;;;;;4995910;28;20037;-63
2021/04/26 08:29:16;;;;;;;1.25;0.70;;;;;;;;;;5000394;28;20419;-64
2021/04/26 08:31:41;;;;;;;1.77;0.50;;;;;;;;;;4996058;28;20038;-63
2021/04/26 08:34:07;;;;;;;2.22;0.52;;;;;;;;;;5000718;28;20142;-63
2021/04/26 08:36:32;;;;;;;1.17;0.60;;;;;;;;;;4994345;28;20406;-63
2021/04/26 08:38:57;;;;;;;0.50;0.50;;;;;;;;;;4994191;28;20129;-63
2021/04/26 08:41:23;;;;;;;1.15;0.75;;;;;;;;;;4996573;28;20039;-63
2021/04/26 08:43:49;;;;;;;0.90;0.50;;;;;;;;;;4996557;28;20043;-63
2021/04/26 08:46:14;;;;;;;1.52;0.70;;;;;;;;;;4994197;28;20035;-63
2021/04/26 08:48:40;;;;;;;0.63;0.57;;;;;;;;;;4994770;28;20559;-64
2021/04/26 08:51:05;;;;;;;0.90;0.40;;;;;;;;;;4994592;28;20042;-64
2021/04/26 08:53:31;;;;;;;0.50;0.38;;;;;;;;;;5000722;28;20397;-63
2021/04/26 08:55:57;;;;;;;0.40;0.40;;;;;;;;;;4994304;28;20049;-63
2021/04/26 08:58:22;;;;;;;0.70;0.50;;;;;;;;;;4992967;28;20052;-63
2021/04/26 09:00:48;;;;;;;1.00;0.70;;;;;;;;;;4992836;28;20121;-63
2021/04/26 09:03:13;;;;;;;0.50;0.40;;;;;;;;;;4984825;28;20518;-63
2021/04/26 09:05:40;;;;;;;2.53;0.50;;;;;;;;;;5000583;28;20041;-63
2021/04/26 09:08:12;;;;;;;0.82;0.60;;;;;;;;;;4995431;28;20038;-63
2021/04/26 09:10:45;;;;;;;;;;;;;;;;;;4995935;28;20572;-63
2021/04/26 09:13:41;;;;;;;0.77;0.50;;;;;;;;;;4995579;28;19917;-63
2021/04/26 09:16:09;;;;;;;0.85;0.60;;;;;;;;;;4996010;28;20112;-63
2021/04/26 09:18:44;;;;;;;1.15;0.50;;;;;;;;;;5004519;28;20080;-63
2021/04/26 09:21:32;;;;;;;0.73;0.50;;;;;;;;;;4993877;28;20137;-63
2021/04/26 09:24:11;;;;;;;0.50;0.40;;;;;;;;;;4979469;28;20472;-63
2021/04/26 09:26:36;;;;;;;0.60;0.40;;;;;;;;;;4994183;28;20042;-63
2021/04/26 09:29:22;;;;;;;0.80;0.50;;;;;;;;;;5000665;28;20520;-63
2021/04/26 09:32:05;;;;;;;0.30;0.30;;;;;;;;;;4976778;28;20495;-63
2021/04/26 09:34:37;;;;;;;0.82;0.57;;;;;;;;;;4996826;28;20070;-63
2021/04/26 09:37:12;;;;;;;0.40;0.40;;;;;;;;;;4994319;28;20062;-63
2021/04/26 09:39:58;;;;;;;0.40;0.40;;;;;;;;;;4995689;28;20035;-63
2021/04/26 09:42:46;;;;;;;1.05;0.60;;;;;;;;;;4994782;28;20042;-63
2021/04/26 09:45:29;;;;;;;0.90;0.35;;;;;;;;;;4993028;28;20049;-63
2021/04/26 09:48:20;;;;;;;0.50;0.40;;;;;;;;;;4994815;28;20031;-63
2021/04/26 09:50:50;;;;;;;0.70;0.60;;;;;;;;;;4996237;28;20034;-63
2021/04/26 09:53:15;;;;;;;0.70;0.40;;;;;;;;;;4994959;28;20056;-63
2021/04/26 09:55:41;;;;;;;0.95;0.50;;;;;;;;;;4996113;28;20113;-63
2021/04/26 09:58:07;;;;;;;0.70;0.60;;;;;;;;;;4998317;28;20276;-63
2021/04/26 10:00:32;;;;;;;0.52;0.50;;;;;;;;;;4993328;28;20902;-63
2021/04/26 10:02:58;;;;;;;0.85;0.57;;;;;;;;;;4994794;28;20038;-63
2021/04/26 10:05:23;;;;;;;1.73;0.60;;;;;;;;;;4997851;28;20113;-64
2021/04/26 10:07:49;;;;;;;0.43;0.43;;;;;;;;;;4996196;28;20041;-63
2021/04/26 10:10:14;;;;;;;2.05;0.77;;;;;;;;;;4987465;28;20049;-63
2021/04/26 10:12:40;;;;;;;0.77;0.60;;;;;;;;;;5005419;28;20054;-63
2021/04/26 10:15:06;;;;;;;1.70;0.63;;;;;;;;;;4998654;28;20034;-63
2021/04/26 10:17:31;;;;;;;0.40;0.40;;;;;;;;;;5003772;28;20038;-63
2021/04/26 10:19:57;;;;;;;0.88;0.40;;;;;;;;;;4987249;28;20039;-63
2021/04/26 10:22:39;;;;;;;1.27;0.65;;;;;;;;;;4996096;28;20490;-63
2021/04/26 10:25:08;;;;;;;0.60;0.50;;;;;;;;;;4996310;28;20039;-63
2021/04/26 10:27:38;;;;;;;0.98;0.43;;;;;;;;;;4984576;28;21182;-63
2021/04/26 10:30:08;;;;;;;0.95;0.52;;;;;;;;;;5000740;28;20034;-63
2021/04/26 10:33:02;;;;;;;0.98;0.60;;;;;;;;;;4998628;28;20038;-63
2021/04/26 10:36:00;;;;;;;0.75;0.52;;;;;;;;;;4998496;28;20038;-63
2021/04/26 10:38:39;;;;;;;0.93;0.60;;;;;;;;;;4983467;28;20153;-63
2021/04/26 10:41:05;;;;;;;1.00;0.55;;;;;;;;;;4996532;28;20049;-63
2021/04/26 10:43:31;;;;;;;0.77;0.50;;;;;;;;;;4986711;28;20034;-63
2021/04/26 10:46:15;;;;;;;1.85;0.82;;;;;;;;;;4996983;28;20037;-63
2021/04/26 10:49:06;;;;;;;1.00;0.60;;;;;;;;;;4997344;28;20035;-63
2021/04/26 10:51:32;;;;;;;0.85;0.50;;;;;;;;;;4997143;28;20068;-63
2021/04/26 10:53:58;;;;;;;0.57;0.40;;;;;;;;;;4995689;28;20046;-63
2021/04/26 10:56:31;;;;;;;1.42;0.70;;;;;;;;;;4964191;28;20047;-64
2021/04/26 10:59:15;;;;;;;0.70;0.50;;;;;;;;;;4996697;28;20034;-63
2021/04/26 11:01:51;;;;;;;0.98;0.60;;;;;;;;;;4996972;28;20049;-63
2021/04/26 11:04:16;;;;;;;0.95;0.55;;;;;;;;;;4997100;28;21156;-63
2021/04/26 11:07:03;;;;;;;1.63;0.68;;;;;;;;;;5002732;28;20038;-63
2021/04/26 11:09:40;;;;;;;1.02;0.60;;;;;;;;;;4985577;28;20121;-64
2021/04/26 11:12:31;;;;;;;0.57;0.50;;;;;;;;;;4996250;28;20098;-63
2021/04/26 11:15:12;;;;;;;1.17;0.70;;;;;;;;;;4996799;28;20364;-63
2021/04/26 11:17:38;;;;;;;1.10;0.60;;;;;;;;;;4996488;28;20133;-63
2021/04/26 11:20:23;;;;;;;0.90;0.50;;;;;;;;;;5002686;28;20395;-63
2021/04/26 11:22:57;;;;;;;2.05;0.70;;;;;;;;;;4996322;28;20105;-63
2021/04/26 11:25:32;;;;;;;0.80;0.60;;;;;;;;;;4986886;28;20092;-63
2021/04/26 11:27:58;;;;;;;1.55;0.68;;;;;;;;;;5001330;28;20038;-63
2021/04/26 11:30:26;;;;;;;0.63;0.60;;;;;;;;;;4996576;28;20066;-63
2021/04/26 11:33:17;;;;;;;0.73;0.60;;;;;;;;;;4996665;28;20027;-63
2021/04/26 11:36:12;;;;;;;1.27;0.70;;;;;;;;;;4982783;28;20047;-63
2021/04/26 11:38:39;;;;;;;0.98;0.60;;;;;;;;;;4997478;28;20110;-63
2021/04/26 11:41:05;;;;;;;1.25;0.70;;;;;;;;;;5001859;28;20022;-64
2021/04/26 11:43:30;;;;;;;1.85;0.70;;;;;;;;;;4996006;28;20038;-63
2021/04/26 11:45:56;;;;;;;1.08;0.90;;;;;;;;;;4997715;28;20049;-63
2021/04/26 11:48:23;;;;;;;1.40;0.80;;;;;;;;;;4995138;28;20043;-63
2021/04/26 11:50:48;;;;;;;0.57;0.57;;;;;;;;;;4996513;28;20053;-63
2021/04/26 11:53:28;;;;;;;1.42;0.73;;;;;;;;;;4994064;28;20035;-63
2021/04/26 11:55:53;;;;;;;1.75;0.40;;;;;;;;;;5001909;28;20038;-63
2021/04/26 11:58:25;;;;;;;1.13;0.60;;;;;;;;;;4994731;28;20457;-63
2021/04/26 12:00:50;;;;;;;;;;;;;;;;;;4996645;28;20039;-63
2021/04/26 12:03:16;;;;;;;0.65;0.60;;;;;;;;;;4997418;28;19921;-63
2021/04/26 12:05:42;;;;;;;1.08;0.80;;;;;;;;;;4996325;28;20034;-63
2021/04/26 12:08:08;;;;;;;1.30;0.63;;;;;;;;;;4995664;28;20533;-63
2021/04/26 12:10:40;;;;;;;1.75;0.80;;;;;;;;;;4997470;28;20088;-63
2021/04/26 12:13:06;;;;;;;2.10;0.98;;;;;;;;;;4996294;28;20161;-63
2021/04/26 12:15:33;;;;;;;0.60;0.60;;;;;;;;;;5004663;28;20034;-63
2021/04/26 12:17:59;;;;;;;0.90;0.70;;;;;;;;;;4996872;28;20077;-63
2021/04/26 12:20:31;;;;;;;1.05;0.80;;;;;;;;;;5003608;28;20039;-63
2021/04/26 12:23:02;;;;;;;1.23;0.70;;;;;;;;;;4976992;28;20047;-63
2021/04/26 12:25:28;;;;;;;1.27;0.70;;;;;;;;;;4992141;28;20149;-63
2021/04/26 12:28:01;;;;;;;0.93;0.70;;;;;;;;;;4993430;28;20109;-63
2021/04/26 12:30:27;;;;;;;0.55;0.50;;;;;;;;;;4987649;28;20137;-63
2021/04/26 12:32:53;;;;;;;0.70;0.63;;;;;;;;;;4985304;28;20031;-63
2021/04/26 12:35:24;;;;;;;0.80;0.77;;;;;;;;;;4996281;28;20189;-63
2021/04/26 12:37:50;;;;;;;1.40;0.70;;;;;;;;;;4993172;28;20069;-63
2021/04/26 12:40:19;;;;;;;0.93;0.75;;;;;;;;;;4994349;28;20034;-63
2021/04/26 12:42:49;;;;;;;1.25;0.80;;;;;;;;;;4994406;28;20407;-64
2021/04/26 12:45:22;;;;;;;0.68;0.68;;;;;;;;;;5004560;28;20092;-63
2021/04/26 12:47:59;;;;;;;0.70;0.60;;;;;;;;;;4994812;28;20358;-63
2021/04/26 12:50:29;;;;;;;1.10;0.80;;;;;;;;;;4995568;28;20613;-63
2021/04/26 12:53:30;;;;;;;0.95;0.65;;;;;;;;;;4996191;28;20205;-63
2021/04/26 12:56:10;;;;;;;1.38;0.70;;;;;;;;;;4992480;28;20054;-63
2021/04/26 12:58:40;;;;;;;1.05;0.75;;;;;;;;;;4996302;28;20035;-63
2021/04/26 13:01:13;;;;;;;0.50;0.50;;;;;;;;;;4995294;28;20030;-63
2021/04/26 13:03:48;;;;;;;3.15;0.90;;;;;;;;;;4994396;28;20082;-63
2021/04/26 13:06:15;;;;;;;1.08;0.80;;;;;;;;;;4994764;28;20039;-63
2021/04/26 13:08:43;;;;;;;2.08;0.75;;;;;;;;;;5000498;28;20286;-63
2021/04/26 13:11:10;;;;;;;1.10;0.70;;;;;;;;;;4977050;28;20510;-63
2021/04/26 13:13:54;;;;;;;1.15;0.88;;;;;;;;;;5008282;28;20122;-63
2021/04/26 13:16:21;;;;;;;1.23;0.70;;;;;;;;;;4996345;28;20045;-63
2021/04/26 13:18:51;;;;;;;2.10;0.90;;;;;;;;;;4994976;28;20422;-63
2021/04/26 13:21:17;;;;;;;2.55;0.80;;;;;;;;;;4984304;28;20502;-63
2021/04/26 13:23:42;;;;;;;1.30;0.60;;;;;;;;;;4994114;28;20046;-63
2021/04/26 13:26:34;;;;;;;1.13;0.80;;;;;;;;;;4994435;28;20473;-63
2021/04/26 13:29:16;;;;;;;1.27;0.75;;;;;;;;;;4985721;28;20042;-64
2021/04/26 13:31:42;;;;;;;1.70;0.70;;;;;;;;;;4994443;28;20477;-64
2021/04/26 13:34:08;;;;;;;1.10;0.70;;;;;;;;;;4994379;28;20106;-64
2021/04/26 13:36:33;;;;;;;1.23;0.75;;;;;;;;;;4976183;28;20041;-66
2021/04/26 13:38:59;;;;;;;0.68;0.68;;;;;;;;;;4992512;28;20215;-67
2021/04/26 13:41:24;;;;;;;1.42;0.70;;;;;;;;;;4992902;28;20043;-65
2021/04/26 13:43:50;;;;;;;2.05;0.70;;;;;;;;;;4992921;28;20049;-66
2021/04/26 13:46:17;;;;;;;1.30;0.60;;;;;;;;;;4992606;28;20035;-66
2021/04/26 13:48:43;;;;;;;0.60;0.60;;;;;;;;;;4993356;28;20078;-64
2021/04/26 13:51:09;;;;;;;1.02;0.80;;;;;;;;;;4995273;28;20097;-64
2021/04/26 13:53:34;;;;;;;1.35;0.70;;;;;;;;;;4995100;28;20547;-65
2021/04/26 13:56:00;;;;;;;1.38;0.90;;;;;;;;;;4993887;28;20501;-65
2021/04/26 13:58:25;;;;;;;1.25;0.93;;;;;;;;;;4976550;28;20046;-64
2021/04/26 14:00:51;;;;;;;1.35;0.70;;;;;;;;;;4995903;28;20039;-65
2021/04/26 14:03:16;;;;;;;1.27;0.80;;;;;;;;;;4993843;28;20049;-65
2021/04/26 14:05:45;;;;;;;1.58;0.73;;;;;;;;;;4993965;28;20047;-65
2021/04/26 14:08:11;;;;;;;1.13;0.70;;;;;;;;;;4998930;28;20050;-65
2021/04/26 14:10:36;;;;;;;0.93;0.70;;;;;;;;;;4993237;28;20050;-65
2021/04/26 14:13:02;;;;;;;1.63;0.88;;;;;;;;;;4995416;28;20033;-65
2021/04/26 14:15:27;;;;;;;2.25;0.80;;;;;;;;;;4993676;28;20463;-65
2021/04/26 14:17:53;;;;;;;1.85;0.80;;;;;;;;;;5000087;28;20046;-64
2021/04/26 14:20:18;;;;;;;1.80;1.10;;;;;;;;;;4992471;28;20037;-65
2021/04/26 14:22:44;;;;;;;1.98;0.80;;;;;;;;;;4994944;28;20510;-65
2021/04/26 14:25:10;;;;;;;0.85;0.70;;;;;;;;;;4992865;28;20471;-65
2021/04/26 14:27:35;;;;;;;1.30;0.80;;;;;;;;;;4995374;28;20037;-65
2021/04/26 14:30:01;;;;;;;2.15;0.90;;;;;;;;;;4994133;28;20053;-65
2021/04/26 14:32:27;;;;;;;0.68;0.63;;;;;;;;;;4992712;28;20063;-65
2021/04/26 14:34:52;;;;;;;2.22;0.98;;;;;;;;;;4995556;28;20028;-65
2021/04/26 14:37:18;;;;;;;1.95;0.80;;;;;;;;;;4994920;28;20046;-65
2021/04/26 14:39:43;;;;;;;0.63;0.63;;;;;;;;;;4994544;28;20042;-65
2021/04/26 14:42:10;;;;;;;1.00;0.77;;;;;;;;;;4991892;28;20034;-65
2021/04/26 14:44:36;;;;;;;0.77;0.70;;;;;;;;;;5000196;28;20038;-65
2021/04/26 14:47:01;;;;;;;1.00;0.80;;;;;;;;;;4992082;28;20484;-65
2021/04/26 14:49:28;;;;;;;1.10;0.80;;;;;;;;;;4995749;28;20496;-66
2021/04/26 14:51:53;;;;;;;1.52;0.95;;;;;;;;;;4997935;28;20049;-65
2021/04/26 14:54:19;;;;;;;1.70;1.00;;;;;;;;;;4996563;28;20445;-65
2021/04/26 14:56:44;;;;;;;1.10;0.80;;;;;;;;;;4997000;28;20045;-65
2021/04/26 14:59:14;;;;;;;1.33;0.73;;;;;;;;;;4998893;28;20053;-65